Time;durP1;ratioP1;P1;durP2;ratioP2;P2;SDS_P1;SDS_P2;PMS_P1;PMS_P2;Temp;Humidity;BMP_temperature;BMP_pressure;BME280_temperature;BME280_humidity;BME280_pressure;Samples;Min_cycle;Max_cycle;Signal;HPM_P1;HPM_P2
2021/12/26 00:00:44;;;;;;;52.65;24.38;;;;;;;;;;5074220;28;20359;-64
2021/12/26 00:03:10;;;;;;;46.90;24.65;;;;;;;;;;5077800;28;20482;-64
2021/12/26 00:05:35;;;;;;;43.13;24.27;;;;;;;;;;5112926;28;20160;-65
2021/12/26 00:08:01;;;;;;;48.70;23.73;;;;;;;;;;5077523;28;20030;-65
2021/12/26 00:10:28;;;;;;;52.20;23.88;;;;;;;;;;5094537;28;20115;-64
2021/12/26 00:12:55;;;;;;;50.28;24.77;;;;;;;;;;5077665;28;20497;-65
2021/12/26 00:15:21;;;;;;;71.65;34.10;;;;;;;;;;5112722;28;20036;-64
2021/12/26 00:17:46;;;;;;;54.35;27.77;;;;;;;;;;5112669;28;20462;-64
2021/12/26 00:20:12;;;;;;;69.40;30.60;;;;;;;;;;5113380;28;20043;-65
2021/12/26 00:22:38;;;;;;;69.43;34.65;;;;;;;;;;5081098;28;20066;-64
2021/12/26 00:25:04;;;;;;;57.97;26.30;;;;;;;;;;5097946;28;20071;-64
2021/12/26 00:27:29;;;;;;;50.92;25.33;;;;;;;;;;5081019;28;20035;-65
2021/12/26 00:29:55;;;;;;;53.00;26.40;;;;;;;;;;5097922;28;20085;-65
2021/12/26 00:32:21;;;;;;;47.47;24.05;;;;;;;;;;5097864;28;20042;-64
2021/12/26 00:34:50;;;;;;;51.95;24.80;;;;;;;;;;5115789;28;20114;-65
2021/12/26 00:37:15;;;;;;;58.05;25.27;;;;;;;;;;5097929;28;20055;-64
2021/12/26 00:39:41;;;;;;;63.75;26.75;;;;;;;;;;5115923;28;20079;-64
2021/12/26 00:42:08;;;;;;;58.63;29.13;;;;;;;;;;5097647;28;20042;-65
2021/12/26 00:44:39;;;;;;;59.63;26.40;;;;;;;;;;5097523;28;20027;-65
2021/12/26 00:47:05;;;;;;;53.72;25.63;;;;;;;;;;5080864;28;20490;-64
2021/12/26 00:49:32;;;;;;;44.95;22.92;;;;;;;;;;5097368;28;20027;-65
2021/12/26 00:51:57;;;;;;;53.78;26.13;;;;;;;;;;5115915;28;20034;-64
2021/12/26 00:54:23;;;;;;;52.00;27.20;;;;;;;;;;5097913;28;20490;-65
2021/12/26 00:56:50;;;;;;;54.25;29.52;;;;;;;;;;5097551;28;20063;-64
2021/12/26 00:59:15;;;;;;;58.35;28.40;;;;;;;;;;5097296;28;20039;-64
2021/12/26 01:01:42;;;;;;;60.30;30.02;;;;;;;;;;5097342;28;20081;-65
2021/12/26 01:04:08;;;;;;;54.50;27.65;;;;;;;;;;5115455;28;20442;-65
2021/12/26 01:06:34;;;;;;;45.70;25.40;;;;;;;;;;5080329;28;20051;-65
2021/12/26 01:09:00;;;;;;;48.15;25.85;;;;;;;;;;5097625;28;20047;-65
2021/12/26 01:11:35;;;;;;;60.40;29.75;;;;;;;;;;5097197;28;20470;-65
2021/12/26 01:14:04;;;;;;;49.45;26.50;;;;;;;;;;5097306;28;20486;-66
2021/12/26 01:16:51;;;;;;;57.40;26.50;;;;;;;;;;5082687;28;20136;-66
2021/12/26 01:19:25;;;;;;;59.10;27.33;;;;;;;;;;5097333;28;20482;-66
2021/12/26 01:21:52;;;;;;;57.03;26.63;;;;;;;;;;5115430;28;20036;-65
2021/12/26 01:24:19;;;;;;;56.80;30.80;;;;;;;;;;5097239;28;20050;-65
2021/12/26 01:26:44;;;;;;;60.30;29.55;;;;;;;;;;5115308;28;20110;-64
2021/12/26 01:29:17;;;;;;;63.63;28.67;;;;;;;;;;5096810;28;20067;-66
2021/12/26 01:31:43;;;;;;;53.08;28.67;;;;;;;;;;5096469;28;20124;-64
2021/12/26 01:34:32;;;;;;;58.45;29.73;;;;;;;;;;5089985;28;20454;-65
2021/12/26 01:37:27;;;;;;;54.83;27.05;;;;;;;;;;5096867;28;20084;-65
2021/12/26 01:40:05;;;;;;;58.17;27.23;;;;;;;;;;5096739;28;20036;-65
2021/12/26 01:42:54;;;;;;;56.72;26.55;;;;;;;;;;5101495;28;20055;-65
2021/12/26 01:45:35;;;;;;;52.78;27.13;;;;;;;;;;5096838;28;20390;-64
2021/12/26 01:48:04;;;;;;;54.58;27.15;;;;;;;;;;5114918;28;20039;-64
2021/12/26 01:50:32;;;;;;;49.00;26.55;;;;;;;;;;5080221;28;20039;-65
2021/12/26 01:52:59;;;;;;;52.95;26.98;;;;;;;;;;5096963;28;20049;-65
2021/12/26 01:55:26;;;;;;;47.10;26.60;;;;;;;;;;5080199;28;20042;-65
2021/12/26 01:57:56;;;;;;;56.95;27.25;;;;;;;;;;5079743;28;20401;-64
2021/12/26 02:00:23;;;;;;;52.28;27.98;;;;;;;;;;5079276;28;20193;-64
2021/12/26 02:02:48;;;;;;;51.10;27.73;;;;;;;;;;5114818;28;20044;-64
2021/12/26 02:05:15;;;;;;;48.75;27.00;;;;;;;;;;5079689;28;20028;-64
2021/12/26 02:07:41;;;;;;;44.08;26.65;;;;;;;;;;5096500;28;20047;-64
2021/12/26 02:10:07;;;;;;;45.45;25.88;;;;;;;;;;5096315;28;20038;-65
2021/12/26 02:12:32;;;;;;;49.65;25.55;;;;;;;;;;5096644;28;20494;-65
2021/12/26 02:14:58;;;;;;;44.80;26.17;;;;;;;;;;5096243;28;20044;-65
2021/12/26 02:17:36;;;;;;;40.88;23.55;;;;;;;;;;5096234;28;20444;-64
2021/12/26 02:20:16;;;;;;;36.33;24.17;;;;;;;;;;5096104;28;20040;-64
2021/12/26 02:22:46;;;;;;;41.33;25.25;;;;;;;;;;5079461;28;20040;-65
2021/12/26 02:27:42;;;;;;;40.85;24.10;;;;;;;;;;5095989;28;20038;-65
2021/12/26 02:30:12;;;;;;;51.88;21.80;;;;;;;;;;5079373;28;20039;-64
2021/12/26 02:32:40;;;;;;;45.47;24.17;;;;;;;;;;5079601;28;20453;-64
2021/12/26 02:35:06;;;;;;;41.63;22.38;;;;;;;;;;5114274;28;20068;-64
2021/12/26 02:37:32;;;;;;;45.50;22.60;;;;;;;;;;5095899;28;20497;-64
2021/12/26 02:39:57;;;;;;;46.92;22.70;;;;;;;;;;5114134;28;20036;-64
2021/12/26 02:42:23;;;;;;;45.65;23.02;;;;;;;;;;5095260;28;20043;-65
2021/12/26 02:44:51;;;;;;;45.17;23.95;;;;;;;;;;5079127;28;20486;-64
2021/12/26 02:47:34;;;;;;;43.83;24.48;;;;;;;;;;5095632;28;20039;-64
2021/12/26 02:50:01;;;;;;;36.80;21.52;;;;;;;;;;5095772;28;20063;-64
2021/12/26 02:52:27;;;;;;;53.17;23.20;;;;;;;;;;5095628;28;20130;-64
2021/12/26 02:54:52;;;;;;;52.65;24.30;;;;;;;;;;5095394;28;20131;-68
2021/12/26 02:57:18;;;;;;;40.13;23.40;;;;;;;;;;5095658;28;20042;-64
2021/12/26 02:59:43;;;;;;;172.38;27.42;;;;;;;;;;5095205;28;20031;-64
2021/12/26 03:02:09;;;;;;;184.63;27.77;;;;;;;;;;5095601;28;20024;-64
2021/12/26 03:04:37;;;;;;;221.90;34.08;;;;;;;;;;5095644;28;20039;-64
2021/12/26 03:07:02;;;;;;;95.40;21.80;;;;;;;;;;5095420;28;20035;-64
2021/12/26 03:09:34;;;;;;;91.13;22.85;;;;;;;;;;5113640;28;20036;-65
2021/12/26 03:11:59;;;;;;;41.63;19.70;;;;;;;;;;5113607;28;20031;-64
2021/12/26 03:14:25;;;;;;;39.03;18.85;;;;;;;;;;5095595;28;20032;-64
2021/12/26 03:16:51;;;;;;;64.47;21.80;;;;;;;;;;5095204;28;20359;-64
2021/12/26 03:19:17;;;;;;;99.72;24.42;;;;;;;;;;5095158;28;20032;-64
2021/12/26 03:21:44;;;;;;;61.15;20.15;;;;;;;;;;5095114;28;20038;-64
2021/12/26 03:24:10;;;;;;;37.30;21.27;;;;;;;;;;5095095;28;20035;-66
2021/12/26 03:26:35;;;;;;;55.70;22.50;;;;;;;;;;5078083;28;20063;-65
2021/12/26 03:29:00;;;;;;;44.60;19.77;;;;;;;;;;5094997;28;20067;-64
2021/12/26 03:31:26;;;;;;;30.67;18.20;;;;;;;;;;5113310;28;20039;-64
2021/12/26 03:33:52;;;;;;;51.95;19.42;;;;;;;;;;5078321;28;20040;-64
2021/12/26 03:36:17;;;;;;;36.97;18.42;;;;;;;;;;5095247;28;20023;-63
2021/12/26 03:38:43;;;;;;;29.77;19.10;;;;;;;;;;5094851;28;20112;-64
2021/12/26 03:41:16;;;;;;;59.47;21.25;;;;;;;;;;5094959;28;20067;-64
2021/12/26 03:43:46;;;;;;;31.52;18.88;;;;;;;;;;5094846;28;20031;-64
2021/12/26 03:46:12;;;;;;;31.23;19.15;;;;;;;;;;5094770;28;20034;-64
2021/12/26 03:48:38;;;;;;;27.25;18.80;;;;;;;;;;5094773;28;20406;-64
2021/12/26 03:51:05;;;;;;;27.73;18.33;;;;;;;;;;5094769;28;20032;-64
2021/12/26 03:53:31;;;;;;;25.98;18.13;;;;;;;;;;5094699;28;20027;-65
2021/12/26 03:55:58;;;;;;;30.25;19.42;;;;;;;;;;5077650;28;20484;-64
2021/12/26 03:58:24;;;;;;;28.55;18.75;;;;;;;;;;5094855;28;20039;-65
2021/12/26 04:00:51;;;;;;;32.90;21.02;;;;;;;;;;5094647;28;20059;-64
2021/12/26 04:03:19;;;;;;;61.92;24.95;;;;;;;;;;5089542;28;20126;-64
2021/12/26 04:05:52;;;;;;;26.30;18.73;;;;;;;;;;5089446;28;20032;-65
2021/12/26 04:08:17;;;;;;;23.45;18.40;;;;;;;;;;5090359;28;20448;-65
2021/12/26 04:10:43;;;;;;;33.17;20.38;;;;;;;;;;5090217;28;20500;-64
2021/12/26 04:13:08;;;;;;;37.03;18.00;;;;;;;;;;5090721;28;20372;-65
2021/12/26 04:15:35;;;;;;;27.92;16.58;;;;;;;;;;5090570;28;20385;-64
2021/12/26 04:18:01;;;;;;;21.40;15.93;;;;;;;;;;5090853;28;20114;-64
2021/12/26 04:20:28;;;;;;;18.02;15.02;;;;;;;;;;5090239;28;20069;-64
2021/12/26 04:22:54;;;;;;;25.27;16.60;;;;;;;;;;5073657;28;20039;-66
2021/12/26 04:25:20;;;;;;;34.55;16.40;;;;;;;;;;5073778;28;20445;-64
2021/12/26 04:27:46;;;;;;;25.45;15.93;;;;;;;;;;5073856;28;20044;-64
2021/12/26 04:30:12;;;;;;;31.38;16.35;;;;;;;;;;5090147;28;20398;-67
2021/12/26 04:32:38;;;;;;;21.75;15.75;;;;;;;;;;5073435;28;20092;-65
2021/12/26 04:35:04;;;;;;;21.10;16.33;;;;;;;;;;5073310;28;20024;-65
2021/12/26 04:37:30;;;;;;;25.48;17.13;;;;;;;;;;5090104;28;20040;-66
2021/12/26 04:39:55;;;;;;;29.27;16.63;;;;;;;;;;5073414;28;20027;-65
2021/12/26 04:42:23;;;;;;;27.85;17.10;;;;;;;;;;5090241;28;20028;-65
2021/12/26 04:45:09;;;;;;;22.90;15.95;;;;;;;;;;5108701;28;20047;-72
2021/12/26 04:47:55;;;;;;;28.33;15.57;;;;;;;;;;5092911;28;20130;-64
2021/12/26 04:50:23;;;;;;;30.45;16.25;;;;;;;;;;5073848;28;20035;-65
2021/12/26 04:52:55;;;;;;;22.95;16.15;;;;;;;;;;5090348;28;20086;-64
2021/12/26 04:55:22;;;;;;;27.58;17.33;;;;;;;;;;5090055;28;20055;-64
2021/12/26 04:57:48;;;;;;;26.80;17.98;;;;;;;;;;5090000;28;20032;-65
2021/12/26 05:00:16;;;;;;;26.88;16.70;;;;;;;;;;5089766;28;20443;-69
2021/12/26 05:02:42;;;;;;;22.98;15.77;;;;;;;;;;5072968;28;20039;-73
2021/12/26 05:05:09;;;;;;;42.40;17.45;;;;;;;;;;5090588;28;20066;-64
2021/12/26 05:07:35;;;;;;;36.30;17.83;;;;;;;;;;5092665;28;20035;-65
2021/12/26 05:10:01;;;;;;;32.40;15.98;;;;;;;;;;5093202;28;20385;-65
2021/12/26 05:12:27;;;;;;;29.50;16.27;;;;;;;;;;5093469;28;20031;-64
2021/12/26 05:14:52;;;;;;;19.85;14.32;;;;;;;;;;5111366;28;20035;-65
2021/12/26 05:17:18;;;;;;;32.90;15.02;;;;;;;;;;5111706;28;20038;-73
2021/12/26 05:19:44;;;;;;;25.73;16.35;;;;;;;;;;5093419;28;20390;-64
2021/12/26 05:22:11;;;;;;;28.98;15.60;;;;;;;;;;5093204;28;20466;-64
2021/12/26 05:24:37;;;;;;;21.85;14.82;;;;;;;;;;5093193;28;20069;-67
2021/12/26 05:27:03;;;;;;;24.52;15.20;;;;;;;;;;5093211;28;20116;-65
2021/12/26 05:29:29;;;;;;;20.50;15.10;;;;;;;;;;5093344;28;20036;-64
2021/12/26 05:31:54;;;;;;;25.45;15.10;;;;;;;;;;5111188;28;20040;-65
2021/12/26 05:34:21;;;;;;;21.65;15.10;;;;;;;;;;5093185;28;20134;-67
2021/12/26 05:36:47;;;;;;;65.75;16.50;;;;;;;;;;5093108;28;20118;-65
2021/12/26 05:39:13;;;;;;;39.13;14.60;;;;;;;;;;5092420;28;20478;-65
2021/12/26 05:41:41;;;;;;;20.35;13.30;;;;;;;;;;5093356;28;20390;-71
2021/12/26 05:44:21;;;;;;;31.65;13.63;;;;;;;;;;5077936;28;20120;-65
2021/12/26 05:46:47;;;;;;;44.33;14.38;;;;;;;;;;5092765;28;20067;-65
2021/12/26 05:49:13;;;;;;;26.77;13.15;;;;;;;;;;5092956;28;20027;-65
2021/12/26 05:51:59;;;;;;;29.63;12.25;;;;;;;;;;5092957;28;20035;-66
2021/12/26 05:54:38;;;;;;;25.13;12.48;;;;;;;;;;5092900;28;20122;-66
2021/12/26 05:57:04;;;;;;;18.88;13.88;;;;;;;;;;5110872;28;20154;-64
2021/12/26 05:59:30;;;;;;;24.48;12.88;;;;;;;;;;5092292;28;20363;-67
2021/12/26 06:01:56;;;;;;;22.65;14.88;;;;;;;;;;5092609;28;20039;-65
2021/12/26 06:04:21;;;;;;;26.55;13.77;;;;;;;;;;5092704;28;20039;-65
2021/12/26 06:06:47;;;;;;;27.33;14.52;;;;;;;;;;5092506;28;20040;-65
2021/12/26 06:09:14;;;;;;;36.15;15.98;;;;;;;;;;5092852;28;20054;-65
2021/12/26 06:11:42;;;;;;;22.10;14.38;;;;;;;;;;5092321;28;20114;-64
2021/12/26 06:14:08;;;;;;;29.65;15.38;;;;;;;;;;5092435;28;20114;-65
2021/12/26 06:16:33;;;;;;;21.23;14.30;;;;;;;;;;5091342;28;20039;-65
2021/12/26 06:18:59;;;;;;;55.20;18.25;;;;;;;;;;5092179;28;20160;-72
2021/12/26 06:21:51;;;;;;;67.68;16.83;;;;;;;;;;5078684;28;20039;-65
2021/12/26 06:24:36;;;;;;;26.52;14.38;;;;;;;;;;5095051;28;20118;-65
2021/12/26 06:27:22;;;;;;;44.65;16.70;;;;;;;;;;5092451;28;20031;-67
2021/12/26 06:30:06;;;;;;;51.03;15.80;;;;;;;;;;5110551;28;20038;-65
2021/12/26 06:32:52;;;;;;;26.92;15.40;;;;;;;;;;5109003;28;20493;-70
2021/12/26 06:35:36;;;;;;;39.47;16.05;;;;;;;;;;5110620;28;20047;-71
2021/12/26 06:38:27;;;;;;;52.83;16.05;;;;;;;;;;5078681;28;20173;-66
2021/12/26 06:41:12;;;;;;;40.15;16.10;;;;;;;;;;5110466;28;20042;-65
2021/12/26 06:44:01;;;;;;;48.97;17.87;;;;;;;;;;5084607;28;20398;-66
2021/12/26 06:46:45;;;;;;;42.42;15.75;;;;;;;;;;5110056;28;20368;-64
2021/12/26 06:49:19;;;;;;;37.05;17.67;;;;;;;;;;5091653;28;20126;-65
2021/12/26 06:51:45;;;;;;;36.58;16.67;;;;;;;;;;5109937;28;20538;-65
2021/12/26 06:54:10;;;;;;;34.28;16.35;;;;;;;;;;5091801;28;20028;-68
2021/12/26 06:56:36;;;;;;;63.05;19.00;;;;;;;;;;5109944;28;20486;-66
2021/12/26 06:59:01;;;;;;;53.42;17.63;;;;;;;;;;5109757;28;20035;-65
2021/12/26 07:01:27;;;;;;;37.55;18.52;;;;;;;;;;5091934;28;20054;-66
2021/12/26 07:03:54;;;;;;;37.45;18.20;;;;;;;;;;5091835;28;20036;-66
2021/12/26 07:06:22;;;;;;;42.47;20.17;;;;;;;;;;5074928;28;20123;-65
2021/12/26 07:08:49;;;;;;;54.00;20.48;;;;;;;;;;5091219;28;20034;-65
2021/12/26 07:11:15;;;;;;;36.35;19.27;;;;;;;;;;5091348;28;20036;-65
2021/12/26 07:13:41;;;;;;;42.83;19.80;;;;;;;;;;5091382;28;20019;-65
2021/12/26 07:16:06;;;;;;;40.80;19.80;;;;;;;;;;5109929;28;20035;-65
2021/12/26 07:18:32;;;;;;;50.13;20.77;;;;;;;;;;5090657;28;20031;-69
2021/12/26 07:20:57;;;;;;;44.38;20.63;;;;;;;;;;5091807;28;20393;-65
2021/12/26 07:23:45;;;;;;;40.00;18.95;;;;;;;;;;5091123;28;20181;-65
2021/12/26 07:26:16;;;;;;;39.83;18.38;;;;;;;;;;5091485;28;20039;-66
2021/12/26 07:28:42;;;;;;;33.80;17.20;;;;;;;;;;5090603;28;20032;-66
2021/12/26 07:31:13;;;;;;;33.00;16.20;;;;;;;;;;5091514;28;20027;-66
2021/12/26 07:33:40;;;;;;;33.03;15.48;;;;;;;;;;5074763;28;20031;-65
2021/12/26 07:36:07;;;;;;;31.70;15.82;;;;;;;;;;5090881;28;21016;-64
2021/12/26 07:38:39;;;;;;;26.60;14.40;;;;;;;;;;5090576;28;20044;-69
2021/12/26 07:41:06;;;;;;;25.92;14.52;;;;;;;;;;5091559;28;20035;-65
2021/12/26 07:43:36;;;;;;;;;;;;;;;;;;5091443;28;20035;-65
2021/12/26 07:46:20;;;;;;;24.52;13.05;;;;;;;;;;5109420;28;20373;-65
2021/12/26 07:48:49;;;;;;;18.90;11.63;;;;;;;;;;5090997;28;20031;-65
2021/12/26 07:51:33;;;;;;;27.00;12.40;;;;;;;;;;5109352;28;20273;-66
2021/12/26 07:54:23;;;;;;;34.17;12.98;;;;;;;;;;5101082;28;20395;-65
2021/12/26 07:57:07;;;;;;;26.48;13.20;;;;;;;;;;5109419;28;20091;-65
2021/12/26 07:59:50;;;;;;;25.60;12.18;;;;;;;;;;5108935;28;20452;-70
2021/12/26 08:02:36;;;;;;;27.10;11.50;;;;;;;;;;5108886;28;20111;-73
2021/12/26 08:05:21;;;;;;;28.23;12.10;;;;;;;;;;5109242;28;20038;-66
2021/12/26 08:07:57;;;;;;;26.15;12.23;;;;;;;;;;5090877;28;20039;-65
2021/12/26 08:10:23;;;;;;;28.20;13.07;;;;;;;;;;5091119;28;20032;-66
2021/12/26 08:12:49;;;;;;;22.38;12.80;;;;;;;;;;5090506;28;20039;-65
2021/12/26 08:15:14;;;;;;;30.85;12.38;;;;;;;;;;5090459;28;20390;-65
2021/12/26 08:17:40;;;;;;;32.17;12.70;;;;;;;;;;5108923;28;20070;-65
2021/12/26 08:20:06;;;;;;;26.92;12.85;;;;;;;;;;5108608;28;20040;-66
2021/12/26 08:22:32;;;;;;;26.23;12.23;;;;;;;;;;5090462;28;20081;-65
2021/12/26 08:24:57;;;;;;;23.88;11.50;;;;;;;;;;5109097;28;20024;-65
2021/12/26 08:27:23;;;;;;;21.77;12.10;;;;;;;;;;5108810;28;20059;-65
2021/12/26 08:29:48;;;;;;;25.58;11.85;;;;;;;;;;5108861;28;20451;-66
2021/12/26 08:32:16;;;;;;;25.65;11.90;;;;;;;;;;5108612;28;20382;-66
2021/12/26 08:34:43;;;;;;;30.67;12.82;;;;;;;;;;5073129;28;20108;-66
2021/12/26 08:37:08;;;;;;;24.80;12.20;;;;;;;;;;5073150;28;20141;-66
2021/12/26 08:39:36;;;;;;;31.20;12.52;;;;;;;;;;5108486;28;20177;-67
2021/12/26 08:42:02;;;;;;;29.58;13.02;;;;;;;;;;5110688;28;20032;-65
2021/12/26 08:44:28;;;;;;;21.38;12.05;;;;;;;;;;5077155;28;20428;-65
2021/12/26 08:46:53;;;;;;;26.48;12.68;;;;;;;;;;5111829;28;20106;-66
2021/12/26 08:49:19;;;;;;;31.65;13.85;;;;;;;;;;5111893;28;20030;-65
2021/12/26 08:51:45;;;;;;;26.23;13.02;;;;;;;;;;5111801;28;20390;-66
2021/12/26 08:54:11;;;;;;;28.55;12.98;;;;;;;;;;5112021;28;20035;-65
2021/12/26 08:56:37;;;;;;;25.92;13.45;;;;;;;;;;5111825;28;20043;-67
2021/12/26 08:59:02;;;;;;;26.23;13.43;;;;;;;;;;5076552;28;20473;-66
2021/12/26 09:01:28;;;;;;;31.30;13.75;;;;;;;;;;5111728;28;20118;-69
2021/12/26 09:03:54;;;;;;;22.30;12.68;;;;;;;;;;5111988;28;20389;-67
2021/12/26 09:06:21;;;;;;;27.80;12.65;;;;;;;;;;5093569;28;20398;-66
2021/12/26 09:08:46;;;;;;;19.58;12.00;;;;;;;;;;5111369;28;20026;-66
2021/12/26 09:11:11;;;;;;;22.55;12.07;;;;;;;;;;5111691;28;20035;-68
2021/12/26 09:13:37;;;;;;;21.40;11.50;;;;;;;;;;5076787;28;20067;-65
2021/12/26 09:16:03;;;;;;;22.15;11.32;;;;;;;;;;5093714;28;20039;-64
2021/12/26 09:18:28;;;;;;;21.52;10.40;;;;;;;;;;5076317;28;20031;-66
2021/12/26 09:20:54;;;;;;;19.17;9.95;;;;;;;;;;5111369;28;20115;-69
2021/12/26 09:23:19;;;;;;;17.98;8.98;;;;;;;;;;5111451;28;20106;-65
2021/12/26 09:25:45;;;;;;;20.50;9.48;;;;;;;;;;5093469;28;20117;-64
2021/12/26 09:28:10;;;;;;;24.02;9.15;;;;;;;;;;5111472;28;20027;-64
2021/12/26 09:30:36;;;;;;;22.65;9.98;;;;;;;;;;5111262;28;20043;-64
2021/12/26 09:33:01;;;;;;;20.88;9.90;;;;;;;;;;5111962;28;20110;-64
2021/12/26 09:35:27;;;;;;;19.90;10.18;;;;;;;;;;5111154;28;20028;-64
2021/12/26 09:37:52;;;;;;;18.20;9.15;;;;;;;;;;5111328;28;20052;-63
2021/12/26 09:40:18;;;;;;;22.23;9.65;;;;;;;;;;5111157;28;20077;-64
2021/12/26 09:42:44;;;;;;;21.23;9.02;;;;;;;;;;5092551;28;20466;-63
2021/12/26 09:45:10;;;;;;;21.67;10.38;;;;;;;;;;5076207;28;20032;-64
2021/12/26 09:47:36;;;;;;;23.80;10.48;;;;;;;;;;5092867;28;20402;-64
2021/12/26 09:50:02;;;;;;;24.15;11.68;;;;;;;;;;5093009;28;20027;-64
2021/12/26 09:52:27;;;;;;;23.45;10.52;;;;;;;;;;5110752;28;20024;-64
2021/12/26 09:54:53;;;;;;;33.17;10.95;;;;;;;;;;5110799;28;20027;-64
2021/12/26 09:57:18;;;;;;;22.42;10.68;;;;;;;;;;5110923;28;20027;-65
2021/12/26 09:59:47;;;;;;;30.98;10.00;;;;;;;;;;5092316;28;20040;-65
2021/12/26 10:02:14;;;;;;;22.40;10.02;;;;;;;;;;5111076;28;20055;-64
2021/12/26 10:04:40;;;;;;;18.67;9.75;;;;;;;;;;5110645;28;20028;-65
2021/12/26 10:07:09;;;;;;;21.58;5.20;;;;;;;;;;5075841;28;20490;-65
2021/12/26 10:09:39;;;;;;;26.33;6.43;;;;;;;;;;5075789;28;20062;-65
2021/12/26 10:12:04;;;;;;;;;;;;;;;;;;5110898;28;20042;-64
2021/12/26 10:14:30;;;;;;;19.75;4.75;;;;;;;;;;5110757;28;19912;-65
2021/12/26 10:16:59;;;;;;;18.77;4.18;;;;;;;;;;5075304;28;20031;-64
2021/12/26 10:19:24;;;;;;;23.23;4.18;;;;;;;;;;5110529;28;20042;-64
2021/12/26 10:21:51;;;;;;;26.05;4.35;;;;;;;;;;5110582;28;20032;-65
2021/12/26 10:24:17;;;;;;;20.80;6.35;;;;;;;;;;5092142;28;20035;-65
2021/12/26 10:26:44;;;;;;;21.27;5.10;;;;;;;;;;5110055;28;20244;-64
2021/12/26 10:29:11;;;;;;;21.45;3.95;;;;;;;;;;5075347;28;20118;-65
2021/12/26 10:31:41;;;;;;;22.77;4.32;;;;;;;;;;5075243;28;20042;-64
2021/12/26 10:34:07;;;;;;;16.10;4.35;;;;;;;;;;5110366;28;20031;-64
2021/12/26 10:36:43;;;;;;;15.25;3.47;;;;;;;;;;5092047;28;20106;-64
2021/12/26 10:39:12;;;;;;;16.85;3.95;;;;;;;;;;5092194;28;20112;-64
2021/12/26 10:41:47;;;;;;;18.93;3.67;;;;;;;;;;5075623;28;20030;-64
2021/12/26 10:44:23;;;;;;;19.48;3.65;;;;;;;;;;5110211;28;20066;-65
2021/12/26 10:46:50;;;;;;;16.20;3.50;;;;;;;;;;5074832;28;20099;-64
2021/12/26 10:49:36;;;;;;;25.70;3.90;;;;;;;;;;5074962;28;20027;-65
2021/12/26 10:52:08;;;;;;;15.30;3.55;;;;;;;;;;5058057;28;20401;-64
2021/12/26 10:54:35;;;;;;;17.48;4.07;;;;;;;;;;5074873;28;20043;-64
2021/12/26 10:57:13;;;;;;;17.55;3.60;;;;;;;;;;5110060;28;20073;-64
2021/12/26 10:59:42;;;;;;;15.45;3.80;;;;;;;;;;5074572;28;20044;-66
2021/12/26 11:02:08;;;;;;;15.52;3.22;;;;;;;;;;5074842;28;20088;-65
2021/12/26 11:04:36;;;;;;;20.70;3.85;;;;;;;;;;5073601;28;20036;-65
2021/12/26 11:07:08;;;;;;;14.90;3.47;;;;;;;;;;5109786;28;20080;-64
2021/12/26 11:09:34;;;;;;;13.50;3.53;;;;;;;;;;5074502;28;20059;-64
2021/12/26 11:12:01;;;;;;;12.70;3.28;;;;;;;;;;5109857;28;20470;-67
2021/12/26 11:14:26;;;;;;;14.40;2.50;;;;;;;;;;5074676;28;20070;-65
2021/12/26 11:16:52;;;;;;;12.85;2.78;;;;;;;;;;5109090;28;20063;-67
2021/12/26 11:19:37;;;;;;;10.25;2.53;;;;;;;;;;5109547;28;20122;-69
2021/12/26 11:22:03;;;;;;;11.02;2.65;;;;;;;;;;5109637;28;20386;-67
2021/12/26 11:24:28;;;;;;;11.80;2.38;;;;;;;;;;5109506;28;20040;-64
2021/12/26 11:26:54;;;;;;;12.60;2.70;;;;;;;;;;5109347;28;20413;-65
2021/12/26 11:29:19;;;;;;;11.05;2.70;;;;;;;;;;5109316;28;20085;-65
2021/12/26 11:31:45;;;;;;;11.63;3.25;;;;;;;;;;5074255;28;20027;-64
2021/12/26 11:34:10;;;;;;;14.02;3.10;;;;;;;;;;5109367;28;20031;-65
2021/12/26 11:36:37;;;;;;;14.90;3.10;;;;;;;;;;5109620;28;20035;-64
2021/12/26 11:39:21;;;;;;;12.45;2.85;;;;;;;;;;5093922;28;20097;-65
2021/12/26 11:42:05;;;;;;;10.35;2.58;;;;;;;;;;5109365;28;20089;-64
2021/12/26 11:45:08;;;;;;;10.30;2.00;;;;;;;;;;5109233;28;20073;-69
2021/12/26 11:47:58;;;;;;;7.18;1.92;;;;;;;;;;5094085;28;20406;-65
2021/12/26 11:51:01;;;;;;;9.88;2.22;;;;;;;;;;5093710;28;20084;-63
2021/12/26 11:54:04;;;;;;;10.65;3.55;;;;;;;;;;5109361;28;20086;-64
2021/12/26 11:56:49;;;;;;;15.00;4.05;;;;;;;;;;5108449;28;20543;-64
2021/12/26 11:59:30;;;;;;;8.75;3.13;;;;;;;;;;5108923;28;20039;-63
2021/12/26 12:01:55;;;;;;;10.10;4.00;;;;;;;;;;5109357;28;20035;-64
2021/12/26 12:04:22;;;;;;;16.48;4.43;;;;;;;;;;5090864;28;20038;-64
2021/12/26 12:06:49;;;;;;;8.77;4.28;;;;;;;;;;5090282;28;20040;-64
2021/12/26 12:09:23;;;;;;;11.80;4.75;;;;;;;;;;5090905;28;20036;-64
2021/12/26 12:11:56;;;;;;;11.80;3.88;;;;;;;;;;5109189;28;20070;-63
2021/12/26 12:14:41;;;;;;;13.48;4.13;;;;;;;;;;5074137;28;20062;-68
2021/12/26 12:17:14;;;;;;;11.10;3.75;;;;;;;;;;5112541;28;20486;-63
2021/12/26 12:19:59;;;;;;;8.48;3.63;;;;;;;;;;5077168;28;20035;-64
2021/12/26 12:22:25;;;;;;;11.40;3.65;;;;;;;;;;5112031;28;20478;-64
2021/12/26 12:24:51;;;;;;;8.10;3.08;;;;;;;;;;5112326;28;20054;-63
2021/12/26 12:27:20;;;;;;;10.90;3.17;;;;;;;;;;5112778;28;20382;-63
2021/12/26 12:29:54;;;;;;;10.40;3.92;;;;;;;;;;5076857;28;20118;-64
2021/12/26 12:32:21;;;;;;;12.60;3.80;;;;;;;;;;5094419;28;20500;-64
2021/12/26 12:34:50;;;;;;;12.98;4.35;;;;;;;;;;5093844;28;20501;-64
2021/12/26 12:37:25;;;;;;;10.98;3.50;;;;;;;;;;5112268;28;20058;-64
2021/12/26 12:40:14;;;;;;;9.55;3.65;;;;;;;;;;5077037;28;20045;-65
2021/12/26 12:42:42;;;;;;;10.50;2.50;;;;;;;;;;5063537;28;20047;-64
2021/12/26 12:45:08;;;;;;;7.32;2.78;;;;;;;;;;5094320;28;20650;-64
2021/12/26 12:47:33;;;;;;;9.82;2.53;;;;;;;;;;5112310;28;20038;-64
2021/12/26 12:50:03;;;;;;;8.77;2.50;;;;;;;;;;5112159;28;20035;-63
2021/12/26 12:52:40;;;;;;;10.15;2.80;;;;;;;;;;5112129;28;20023;-63
2021/12/26 12:55:08;;;;;;;12.07;3.05;;;;;;;;;;5094122;28;20113;-69
2021/12/26 12:57:39;;;;;;;7.03;2.90;;;;;;;;;;5076808;28;20046;-64
2021/12/26 13:00:25;;;;;;;9.15;3.30;;;;;;;;;;5076749;28;20047;-65
2021/12/26 13:02:55;;;;;;;12.07;3.38;;;;;;;;;;5111466;28;20463;-63
2021/12/26 13:05:34;;;;;;;12.80;4.20;;;;;;;;;;5076655;28;20123;-65
2021/12/26 13:08:03;;;;;;;14.25;4.03;;;;;;;;;;5076848;28;20032;-64
2021/12/26 13:10:29;;;;;;;11.48;3.33;;;;;;;;;;5076591;28;20037;-63
2021/12/26 13:13:05;;;;;;;9.07;2.70;;;;;;;;;;5076117;28;20126;-65
2021/12/26 13:15:30;;;;;;;12.68;2.75;;;;;;;;;;5076355;28;20114;-64
2021/12/26 13:17:56;;;;;;;10.02;3.15;;;;;;;;;;5111494;28;20119;-64
2021/12/26 13:20:23;;;;;;;18.38;3.42;;;;;;;;;;5076034;28;20040;-65
2021/12/26 13:22:50;;;;;;;8.88;2.92;;;;;;;;;;5076073;28;20461;-63
2021/12/26 13:25:27;;;;;;;6.97;2.75;;;;;;;;;;5111759;28;20031;-64
2021/12/26 13:27:54;;;;;;;7.78;2.65;;;;;;;;;;5075515;28;20036;-64
2021/12/26 13:30:23;;;;;;;10.30;3.58;;;;;;;;;;5111504;28;20162;-64
2021/12/26 13:32:48;;;;;;;12.07;3.15;;;;;;;;;;5093338;28;20122;-64
2021/12/26 13:35:14;;;;;;;11.23;2.83;;;;;;;;;;5111315;28;20550;-63
2021/12/26 13:37:40;;;;;;;11.18;3.00;;;;;;;;;;5111410;28;20040;-63
2021/12/26 13:40:07;;;;;;;8.77;2.75;;;;;;;;;;5111053;28;20573;-64
2021/12/26 13:42:33;;;;;;;12.85;2.92;;;;;;;;;;5075696;28;20039;-68
2021/12/26 13:44:58;;;;;;;9.63;2.63;;;;;;;;;;5111296;28;20035;-68
2021/12/26 13:47:24;;;;;;;10.32;2.90;;;;;;;;;;5111087;28;20100;-63
2021/12/26 13:49:49;;;;;;;9.85;2.67;;;;;;;;;;5110965;28;20046;-63
2021/12/26 13:52:19;;;;;;;11.52;3.30;;;;;;;;;;5111105;28;20027;-64
2021/12/26 13:54:52;;;;;;;;;;;;;;;;;;5076112;28;20028;-64
2021/12/26 13:57:33;;;;;;;6.63;2.40;;;;;;;;;;5091137;28;19916;-63
2021/12/26 14:00:02;;;;;;;5.65;2.35;;;;;;;;;;5092211;28;20038;-64
2021/12/26 14:02:30;;;;;;;9.38;3.10;;;;;;;;;;5092492;28;20108;-63
2021/12/26 14:05:03;;;;;;;11.25;4.75;;;;;;;;;;5110761;28;20038;-64
2021/12/26 14:07:31;;;;;;;8.70;3.88;;;;;;;;;;5110681;28;20118;-64
2021/12/26 14:09:58;;;;;;;7.65;3.28;;;;;;;;;;5092736;28;20035;-64
2021/12/26 14:12:26;;;;;;;10.43;3.92;;;;;;;;;;5110674;28;20046;-63
2021/12/26 14:14:51;;;;;;;9.90;3.75;;;;;;;;;;5092463;28;20564;-66
2021/12/26 14:17:17;;;;;;;10.60;4.20;;;;;;;;;;5110991;28;20494;-64
2021/12/26 14:19:52;;;;;;;13.63;4.78;;;;;;;;;;5110598;28;20067;-64
2021/12/26 14:22:24;;;;;;;12.50;5.90;;;;;;;;;;5110696;28;20122;-64
2021/12/26 14:24:49;;;;;;;15.05;6.72;;;;;;;;;;5075335;28;20039;-64
2021/12/26 14:27:15;;;;;;;15.77;6.32;;;;;;;;;;5075215;28;20054;-64
2021/12/26 14:29:41;;;;;;;14.00;6.30;;;;;;;;;;5092408;28;20160;-63
2021/12/26 14:32:06;;;;;;;13.40;6.68;;;;;;;;;;5110487;28;20440;-63
2021/12/26 14:34:32;;;;;;;16.65;8.65;;;;;;;;;;5110270;28;20081;-66
2021/12/26 14:36:58;;;;;;;20.65;8.85;;;;;;;;;;5110640;28;20034;-63
2021/12/26 14:39:26;;;;;;;18.75;8.73;;;;;;;;;;5108990;28;20050;-65